createdAt,value
2023-01-22T00:04:25.550Z,100.0
2023-01-22T00:09:57.728Z,100.0
2023-01-22T00:15:29.077Z,100.0
2023-01-22T00:21:00.760Z,100.0
2023-01-22T00:26:32.556Z,100.0
2023-01-22T00:32:04.420Z,100.0
2023-01-22T00:37:35.911Z,100.0
2023-01-22T00:43:07.651Z,100.0
2023-01-22T00:48:45.802Z,100.0
2023-01-22T00:54:17.454Z,100.0
2023-01-22T00:59:49.563Z,100.0
2023-01-22T01:05:20.832Z,100.0
2023-01-22T01:10:52.588Z,100.0
2023-01-22T01:16:24.513Z,100.0
2023-01-22T01:21:56.068Z,100.0
2023-01-22T01:27:27.817Z,100.0
2023-01-22T01:32:59.691Z,100.0
2023-01-22T01:38:31.344Z,100.0
2023-01-22T01:44:02.980Z,100.0
2023-01-22T01:49:39.103Z,100.0
2023-01-22T01:55:10.814Z,100.0
2023-01-22T02:00:43.812Z,100.0
2023-01-22T02:06:19.851Z,100.0
2023-01-22T02:11:45.908Z,100.0
2023-01-22T02:17:17.721Z,100.0
2023-01-22T02:22:49.420Z,100.0
2023-01-22T02:28:21.144Z,100.0
2023-01-22T02:33:52.894Z,100.0
2023-01-22T02:39:24.589Z,100.0
2023-01-22T02:44:56.333Z,100.0
2023-01-22T02:50:32.441Z,100.0
2023-01-22T02:56:04.324Z,100.0
2023-01-22T03:01:35.907Z,100.0
2023-01-22T03:07:07.687Z,100.0
2023-01-22T03:12:39.359Z,100.0
2023-01-22T03:18:11.099Z,100.0
2023-01-22T03:23:42.896Z,100.0
2023-01-22T03:29:14.436Z,100.0
2023-01-22T03:34:46.276Z,100.0
2023-01-22T03:40:18.586Z,100.0
2023-01-22T03:45:49.683Z,100.0
2023-01-22T03:51:27.747Z,100.0
2023-01-22T03:56:59.608Z,100.0
2023-01-22T04:02:31.316Z,100.0
2023-01-22T04:08:02.887Z,100.0
2023-01-22T04:13:34.658Z,100.0
2023-01-22T04:19:06.372Z,100.0
2023-01-22T04:24:38.073Z,100.0
2023-01-22T04:30:09.829Z,100.0
2023-01-22T04:35:41.868Z,100.0
2023-01-22T04:41:13.402Z,100.0
2023-01-22T04:46:45.121Z,100.0
2023-01-22T04:52:23.307Z,100.0
2023-01-22T04:57:56.540Z,100.0
2023-01-22T05:03:26.643Z,100.0
2023-01-22T05:08:58.370Z,100.0
2023-01-22T05:14:30.072Z,100.0
2023-01-22T05:20:02.297Z,100.0
2023-01-22T05:25:33.571Z,100.0
2023-01-22T05:31:05.542Z,100.0
2023-01-22T05:36:36.978Z,100.0
2023-01-22T05:42:08.724Z,100.0
2023-01-22T05:47:40.492Z,100.0
2023-01-22T05:53:18.604Z,100.0
2023-01-22T05:58:50.175Z,100.0
2023-01-22T06:04:21.886Z,100.0
2023-01-22T06:09:53.715Z,100.0
2023-01-22T06:15:25.520Z,100.0
2023-01-22T06:20:57.189Z,100.0
2023-01-22T06:26:28.831Z,100.0
2023-01-22T06:32:00.681Z,100.0
2023-01-22T06:37:32.280Z,100.0
2023-01-22T06:43:03.996Z,100.0
2023-01-22T06:48:35.786Z,100.0
2023-01-22T06:54:11.876Z,100.0
2023-01-22T06:59:43.552Z,100.0
2023-01-22T07:05:15.301Z,100.0
2023-01-22T07:10:47.115Z,100.0
2023-01-22T07:16:19.056Z,100.0
2023-01-22T07:21:50.568Z,100.0
2023-01-22T07:27:22.284Z,100.0
2023-01-22T07:32:54.027Z,100.0
2023-01-22T07:38:25.737Z,100.0
2023-01-22T07:43:57.560Z,100.0
2023-01-22T07:49:29.265Z,100.0
2023-01-22T07:55:05.400Z,100.0
2023-01-22T08:00:37.151Z,100.0
2023-01-22T08:06:08.980Z,100.0
2023-01-22T08:11:40.650Z,100.0
2023-01-22T08:17:12.252Z,100.0
2023-01-22T08:22:43.922Z,100.0
2023-01-22T08:28:15.697Z,100.0
2023-01-22T08:33:47.903Z,100.0
2023-01-22T08:39:19.043Z,100.0
2023-01-22T08:44:50.751Z,100.0
2023-01-22T08:50:22.714Z,100.0
2023-01-22T08:55:58.698Z,100.0
2023-01-22T09:01:30.408Z,100.0
2023-01-22T09:07:02.105Z,100.0
2023-01-22T09:12:33.865Z,100.0
2023-01-22T09:18:05.555Z,100.0
2023-01-22T09:23:37.602Z,100.0
2023-01-22T09:29:08.976Z,100.0
2023-01-22T09:34:40.761Z,100.0
2023-01-22T09:40:12.617Z,100.0
2023-01-22T09:45:44.694Z,100.0
2023-01-22T09:51:16.122Z,100.0
2023-01-22T09:56:52.096Z,100.0
2023-01-22T10:02:23.931Z,100.0
2023-01-22T10:07:55.524Z,100.0
2023-01-22T10:13:27.250Z,100.0
2023-01-22T10:18:59.022Z,100.0
2023-01-22T10:24:30.836Z,100.0
2023-01-22T10:30:02.589Z,100.0
2023-01-22T10:35:34.221Z,100.0
2023-01-22T10:41:06.079Z,100.0
2023-01-22T10:46:37.852Z,100.0
2023-01-22T10:52:09.604Z,100.0
2023-01-22T10:57:47.717Z,100.0
2023-01-22T11:03:19.418Z,100.0
2023-01-22T11:08:51.511Z,100.0
2023-01-22T11:14:22.800Z,100.0
2023-01-22T11:19:54.559Z,100.0
2023-01-22T11:25:26.327Z,100.0
2023-01-22T11:30:58.259Z,100.0
2023-01-22T11:36:29.896Z,100.0
2023-01-22T11:42:01.512Z,100.0
2023-01-22T11:47:33.192Z,100.0
2023-01-22T11:53:04.941Z,100.0
2023-01-22T11:58:41.156Z,100.0
2023-01-22T12:04:12.929Z,100.0
2023-01-22T12:09:45.052Z,100.0
2023-01-22T12:15:16.623Z,100.0
2023-01-22T12:20:48.352Z,100.0
2023-01-22T12:26:20.269Z,100.0
2023-01-22T12:31:51.989Z,100.0
2023-01-22T12:37:23.484Z,100.0
2023-01-22T12:42:55.251Z,100.0
2023-01-22T12:48:27.645Z,99.73
2023-01-22T12:53:59.214Z,99.17
2023-01-22T12:59:35.380Z,99.23
2023-01-22T13:05:07.529Z,98.34
2023-01-22T13:10:38.862Z,99.4
2023-01-22T13:16:10.578Z,99.32
2023-01-22T13:21:42.213Z,98.11
2023-01-22T13:27:14.093Z,98.22
2023-01-22T13:32:45.748Z,98.06
2023-01-22T13:38:17.380Z,99.1
2023-01-22T13:43:49.091Z,98.76
2023-01-22T13:49:20.844Z,99.04
2023-01-22T13:54:52.572Z,97.59
2023-01-22T14:00:30.903Z,97.04
2023-01-22T14:06:02.390Z,97.73
2023-01-22T14:11:34.075Z,97.11
2023-01-22T14:17:05.876Z,98.78
2023-01-22T14:22:37.956Z,97.69
2023-01-22T14:28:09.318Z,98.51
2023-01-22T14:33:41.020Z,99.53
2023-01-22T14:39:13.026Z,100.0
2023-01-22T14:44:44.513Z,99.95
2023-01-22T14:50:16.568Z,99.4
2023-01-22T14:55:48.038Z,99.23
2023-01-22T15:01:26.133Z,98.86
2023-01-22T15:06:58.019Z,99.09
2023-01-22T15:12:29.900Z,98.87
2023-01-22T15:18:01.344Z,98.86
2023-01-22T15:23:33.151Z,98.74
2023-01-22T15:29:04.544Z,98.77
2023-01-22T15:34:36.434Z,98.8
2023-01-22T15:40:08.221Z,97.97
2023-01-22T15:45:40.127Z,98.77
2023-01-22T15:51:11.795Z,99.54
2023-01-22T15:56:43.290Z,99.77
2023-01-22T16:02:21.432Z,99.45
2023-01-22T16:07:53.229Z,100.0
2023-01-22T16:13:25.681Z,99.79
2023-01-22T16:18:56.520Z,99.76
2023-01-22T16:24:28.421Z,99.86
2023-01-22T16:30:00.082Z,100.0
2023-01-22T16:35:31.777Z,100.0
2023-01-22T16:41:04.018Z,100.0
2023-01-22T16:46:35.240Z,100.0
2023-01-22T16:52:23.200Z,100.0
2023-01-22T16:57:38.713Z,100.0
2023-01-22T17:03:16.832Z,100.0
2023-01-22T17:08:48.632Z,100.0
2023-01-22T17:14:20.280Z,100.0
2023-01-22T17:19:52.171Z,100.0
2023-01-22T17:25:23.796Z,100.0
2023-01-22T17:30:55.677Z,100.0
2023-01-22T17:36:27.178Z,100.0
2023-01-22T17:41:58.948Z,100.0
2023-01-22T17:47:30.619Z,100.0
2023-01-22T17:53:02.380Z,100.0
2023-01-22T17:58:34.135Z,100.0
2023-01-22T18:04:12.200Z,100.0
2023-01-22T18:09:44.068Z,100.0
2023-01-22T18:15:15.690Z,100.0
2023-01-22T18:20:47.397Z,100.0
2023-01-22T18:26:19.157Z,100.0
2023-01-22T18:31:50.856Z,100.0
2023-01-22T18:37:22.476Z,100.0
2023-01-22T18:42:54.280Z,100.0
2023-01-22T18:48:26.037Z,100.0
2023-01-22T18:53:57.724Z,100.0
2023-01-22T18:59:29.586Z,100.0
2023-01-22T19:05:05.739Z,100.0
2023-01-22T19:10:37.412Z,100.0
2023-01-22T19:16:09.064Z,100.0
2023-01-22T19:21:40.760Z,100.0
2023-01-22T19:27:12.435Z,100.0
2023-01-22T19:32:44.167Z,100.0
2023-01-22T19:38:16.471Z,100.0
2023-01-22T19:43:47.643Z,100.0
2023-01-22T19:49:19.434Z,100.0
2023-01-22T19:54:51.361Z,100.0
2023-01-22T20:00:22.851Z,99.75
2023-01-22T20:05:59.994Z,99.83
2023-01-22T20:11:31.879Z,100.0
2023-01-22T20:17:03.690Z,100.0
2023-01-22T20:22:35.143Z,100.0
2023-01-22T20:28:06.945Z,100.0
2023-01-22T20:33:38.791Z,100.0
2023-01-22T20:39:10.646Z,99.96
2023-01-22T20:44:42.157Z,100.0
2023-01-22T20:50:13.566Z,100.0
2023-01-22T20:55:45.302Z,100.0
2023-01-22T21:01:17.043Z,100.0
2023-01-22T21:06:53.167Z,100.0
2023-01-22T21:12:24.951Z,100.0
2023-01-22T21:17:57.487Z,100.0
2023-01-22T21:23:28.605Z,100.0
2023-01-22T21:29:00.231Z,100.0
2023-01-22T21:34:32.160Z,100.0
2023-01-22T21:40:03.697Z,100.0
2023-01-22T21:45:35.861Z,100.0
2023-01-22T21:51:07.407Z,100.0
2023-01-22T21:56:39.080Z,100.0
2023-01-22T22:02:11.157Z,100.0
2023-01-22T22:07:46.991Z,100.0
2023-01-22T22:13:18.631Z,100.0
2023-01-22T22:18:50.418Z,100.0
2023-01-22T22:24:22.119Z,100.0
2023-01-22T22:29:54.119Z,100.0
2023-01-22T22:35:25.612Z,100.0
2023-01-22T22:40:57.388Z,100.0
2023-01-22T22:46:29.079Z,100.0
2023-01-22T22:52:01.016Z,100.0
2023-01-22T22:57:32.647Z,100.0
2023-01-22T23:03:04.248Z,100.0
2023-01-22T23:08:40.355Z,100.0
2023-01-22T23:14:12.171Z,100.0
2023-01-22T23:19:43.787Z,100.0
2023-01-22T23:25:15.459Z,100.0
2023-01-22T23:30:47.352Z,100.0
2023-01-22T23:36:18.914Z,100.0
2023-01-22T23:41:50.693Z,100.0
2023-01-22T23:47:22.333Z,100.0
2023-01-22T23:52:54.132Z,100.0
2023-01-22T23:58:25.805Z,100.0
